createdAt,value
2018-12-11T05:34:35.634Z,4.70
2018-12-11T05:37:08.072Z,4.70
2018-12-11T05:39:40.520Z,4.70
2018-12-11T05:42:13.236Z,4.70
2018-12-11T05:44:45.677Z,4.70
2018-12-11T05:47:18.416Z,4.70
2018-12-11T05:49:50.894Z,4.80
2018-12-11T05:52:23.322Z,4.80
2018-12-11T05:54:55.765Z,4.90
2018-12-11T05:57:28.477Z,4.90
2018-12-11T06:00:00.956Z,5.00
2018-12-11T06:02:33.388Z,5.10
2018-12-11T06:05:07.369Z,5.00
2018-12-11T06:07:40.246Z,5.10
2018-12-11T06:10:12.916Z,5.00
2018-12-11T06:12:45.597Z,5.10
2018-12-11T06:15:18.052Z,5.10
2018-12-11T06:17:50.725Z,5.10
2018-12-11T06:20:23.184Z,5.00
2018-12-11T06:22:55.833Z,5.00
2018-12-11T06:25:28.312Z,5.00
2018-12-11T06:28:00.772Z,4.90
2018-12-11T06:30:33.389Z,4.90
2018-12-11T06:33:05.809Z,4.90
2018-12-11T06:35:38.267Z,5.00
2018-12-11T06:38:10.783Z,4.90
2018-12-11T06:40:43.243Z,4.90
2018-12-11T06:43:15.659Z,4.90
2018-12-11T06:45:48.488Z,4.90
2018-12-11T06:48:20.962Z,4.80
2018-12-11T06:50:53.847Z,4.80
2018-12-11T06:53:27.963Z,4.80
2018-12-11T06:56:01.023Z,4.80
2018-12-11T06:58:33.784Z,4.80
2018-12-11T07:01:06.355Z,4.80
2018-12-11T07:03:38.892Z,4.80
2018-12-11T07:06:11.878Z,4.90
2018-12-11T07:08:44.609Z,4.90
2018-12-11T07:11:17.071Z,4.90
2018-12-11T07:13:49.534Z,5.00
2018-12-11T07:16:21.977Z,5.00
2018-12-11T07:18:54.732Z,5.00
2018-12-11T07:21:27.196Z,5.00
2018-12-11T07:23:59.855Z,5.00
2018-12-11T07:26:32.356Z,5.00
2018-12-11T07:29:05.050Z,5.00
2018-12-11T07:31:37.493Z,5.00
2018-12-11T07:34:10.199Z,5.10
2018-12-11T07:36:42.624Z,5.10
2018-12-11T07:39:15.064Z,5.10
2018-12-11T07:41:47.500Z,5.10
2018-12-11T07:44:19.941Z,5.10
2018-12-11T07:46:52.426Z,5.10
2018-12-11T07:49:25.144Z,5.10
2018-12-11T07:51:57.558Z,5.10
2018-12-11T07:54:30.279Z,5.10
2018-12-11T07:57:02.984Z,5.00
2018-12-11T07:59:35.456Z,5.00
2018-12-11T08:02:08.545Z,5.00
2018-12-11T08:04:40.981Z,5.00
2018-12-11T08:07:13.700Z,5.00
2018-12-11T08:09:46.471Z,4.90
2018-12-11T08:12:18.891Z,4.90
2018-12-11T08:14:51.324Z,4.90
2018-12-11T08:17:23.751Z,4.90
2018-12-11T08:19:56.203Z,5.00
2018-12-11T08:22:28.639Z,5.00
2018-12-11T08:25:01.068Z,5.00
2018-12-11T08:27:33.757Z,5.00
2018-12-11T08:30:08.519Z,5.00
2018-12-11T08:32:40.931Z,5.00
2018-12-11T08:35:13.353Z,5.00
2018-12-11T08:37:45.780Z,5.00
2018-12-11T08:40:18.231Z,5.00
2018-12-11T08:42:50.647Z,5.00
2018-12-11T08:45:23.072Z,5.00
2018-12-11T08:47:55.477Z,5.00
2018-12-11T08:50:27.970Z,5.00
2018-12-11T08:53:00.387Z,5.10
2018-12-11T08:55:32.845Z,5.10
2018-12-11T08:58:05.318Z,5.10
2018-12-11T09:00:37.740Z,5.20
2018-12-11T09:03:10.164Z,5.20
2018-12-11T09:05:43.252Z,5.20
2018-12-11T09:08:15.685Z,5.30
2018-12-11T09:10:48.124Z,5.40
2018-12-11T09:13:20.561Z,5.50
2018-12-11T09:15:52.984Z,5.60
2018-12-11T09:18:25.726Z,5.80
2018-12-11T09:20:58.156Z,5.90
2018-12-11T09:23:30.572Z,6.10
2018-12-11T09:26:03.043Z,6.20
2018-12-11T09:28:35.721Z,6.30
2018-12-11T09:31:08.148Z,6.30
2018-12-11T09:33:40.573Z,6.40
2018-12-11T09:36:13.358Z,6.40
2018-12-11T09:38:45.807Z,6.40
2018-12-11T09:41:18.229Z,6.60
2018-12-11T09:43:50.658Z,6.60
2018-12-11T09:46:23.095Z,6.50
2018-12-11T09:48:55.507Z,6.40
2018-12-11T09:51:27.919Z,6.40
2018-12-11T09:54:00.744Z,6.40
2018-12-11T09:56:33.217Z,6.50
2018-12-11T09:59:05.898Z,6.50
2018-12-11T10:01:38.331Z,6.50
2018-12-11T10:04:10.762Z,6.40
2018-12-11T10:06:43.441Z,6.40
2018-12-11T10:09:16.123Z,6.40
2018-12-11T10:11:48.547Z,6.40
2018-12-11T10:14:20.975Z,6.40
2018-12-11T10:16:53.414Z,6.50
2018-12-11T10:19:26.098Z,6.50
2018-12-11T10:21:58.539Z,6.60
2018-12-11T10:24:31.068Z,6.70
2018-12-11T10:27:03.503Z,6.80
2018-12-11T10:29:35.937Z,6.80
2018-12-11T10:32:08.361Z,6.80
2018-12-11T10:34:40.765Z,6.80
2018-12-11T10:37:13.204Z,6.70
2018-12-11T10:39:45.632Z,6.70
2018-12-11T10:42:18.059Z,6.70
2018-12-11T10:44:50.475Z,6.60
2018-12-11T10:47:23.071Z,6.60
2018-12-11T10:49:55.494Z,6.70
2018-12-11T10:52:27.972Z,6.70
2018-12-11T10:55:00.385Z,6.80
2018-12-11T10:57:32.825Z,6.80
2018-12-11T11:00:05.304Z,6.90
2018-12-11T11:02:37.751Z,7.00
2018-12-11T11:05:10.411Z,7.00
2018-12-11T11:07:42.878Z,7.10
2018-12-11T11:10:15.306Z,7.20
2018-12-11T11:12:47.782Z,7.20
2018-12-11T11:15:20.257Z,7.20
2018-12-11T11:17:53.125Z,7.30
2018-12-11T11:20:25.575Z,7.40
2018-12-11T11:22:58.016Z,7.30
2018-12-11T11:25:30.729Z,7.30
2018-12-11T11:28:03.175Z,7.20
2018-12-11T11:30:35.728Z,7.10
2018-12-11T11:33:08.407Z,7.10
2018-12-11T11:35:40.846Z,7.10
2018-12-11T11:38:13.303Z,7.10
2018-12-11T11:40:45.740Z,7.10
2018-12-11T11:43:18.199Z,7.20
2018-12-11T11:45:50.640Z,7.20
2018-12-11T11:48:23.064Z,7.30
2018-12-11T11:50:55.521Z,7.50
2018-12-11T11:53:27.956Z,7.70
2018-12-11T11:56:00.399Z,7.90
2018-12-11T11:58:33.068Z,7.90
2018-12-11T12:01:05.520Z,8.00
2018-12-11T12:03:38.073Z,7.90
2018-12-11T12:06:10.475Z,7.80
2018-12-11T12:08:42.904Z,7.60
2018-12-11T12:11:15.335Z,7.60
2018-12-11T12:13:47.804Z,7.50
2018-12-11T12:16:20.548Z,7.40
2018-12-11T12:18:52.971Z,7.30
2018-12-11T12:21:25.451Z,7.30
2018-12-11T12:23:58.173Z,7.30
2018-12-11T12:26:30.945Z,7.30
2018-12-11T12:29:03.460Z,7.40
2018-12-11T12:31:35.903Z,7.40
2018-12-11T12:34:08.352Z,7.30
2018-12-11T12:36:40.991Z,7.30
2018-12-11T12:39:13.541Z,7.30
2018-12-11T12:41:46.243Z,7.30
2018-12-11T12:44:18.780Z,7.30
2018-12-11T12:46:51.678Z,7.40
2018-12-11T12:49:24.650Z,7.50
2018-12-11T12:51:58.052Z,7.50
2018-12-11T12:54:30.835Z,7.70
2018-12-11T12:57:03.245Z,7.80
2018-12-11T12:59:35.777Z,7.80
2018-12-11T13:02:08.183Z,7.70
2018-12-11T13:04:40.640Z,7.50
2018-12-11T13:07:13.056Z,7.30
2018-12-11T13:09:45.805Z,7.00
2018-12-11T13:12:18.236Z,6.90
2018-12-11T13:14:51.019Z,6.70
2018-12-11T13:17:23.484Z,6.60
2018-12-11T13:19:55.991Z,6.40
2018-12-11T13:22:28.452Z,6.20
2018-12-11T13:25:01.328Z,6.10
2018-12-11T13:27:34.010Z,6.10
2018-12-11T13:30:06.688Z,6.20
2018-12-11T13:32:39.780Z,6.20
2018-12-11T13:35:12.412Z,6.30
2018-12-11T13:37:45.093Z,6.40
2018-12-11T13:40:17.624Z,6.40
2018-12-11T13:42:50.703Z,6.50
2018-12-11T13:45:23.471Z,6.50
2018-12-11T13:47:55.947Z,6.60
2018-12-11T13:50:28.719Z,6.60
2018-12-11T13:53:01.123Z,6.80
2018-12-11T13:55:34.192Z,6.80
2018-12-11T13:58:06.591Z,6.90
2018-12-11T14:00:39.183Z,6.90
2018-12-11T14:03:11.596Z,6.90
2018-12-11T14:05:44.030Z,6.80
2018-12-11T14:08:16.440Z,6.70
2018-12-11T14:10:49.443Z,6.60
2018-12-11T14:13:22.179Z,6.60
2018-12-11T14:15:54.616Z,6.50
2018-12-11T14:18:27.036Z,6.40
2018-12-11T14:20:59.460Z,6.40
2018-12-11T14:23:31.947Z,6.30
2018-12-11T14:26:04.365Z,6.30
2018-12-11T14:28:37.076Z,6.20
2018-12-11T14:31:09.479Z,6.20
2018-12-11T14:33:42.154Z,6.10
2018-12-11T14:36:14.563Z,6.10
2018-12-11T14:38:47.225Z,6.00
2018-12-11T14:41:19.754Z,6.00
2018-12-11T14:43:52.432Z,5.90
2018-12-11T14:46:24.841Z,5.80
2018-12-11T14:48:57.284Z,5.80
2018-12-11T14:51:29.840Z,5.80
2018-12-11T14:54:02.632Z,5.70
2018-12-11T14:56:35.050Z,5.70
2018-12-11T14:59:07.483Z,5.70
2018-12-11T15:01:39.987Z,5.80
2018-12-11T15:04:12.423Z,5.80
2018-12-11T15:06:45.171Z,5.80
2018-12-11T15:09:17.618Z,5.80
2018-12-11T15:11:50.039Z,5.80
2018-12-11T15:14:22.734Z,5.80
2018-12-11T15:16:55.150Z,5.80
2018-12-11T15:19:27.810Z,5.80
2018-12-11T15:22:00.227Z,5.80
2018-12-11T15:24:32.668Z,5.80
2018-12-11T15:27:05.071Z,5.80
2018-12-11T15:29:37.524Z,5.80
2018-12-11T15:32:10.252Z,5.80
2018-12-11T15:34:42.680Z,5.80
2018-12-11T15:37:15.103Z,5.80
2018-12-11T15:39:47.775Z,5.80
2018-12-11T15:42:20.183Z,5.80
2018-12-11T15:44:53.506Z,5.80
2018-12-11T15:47:26.187Z,5.80
2018-12-11T15:49:58.608Z,5.80
2018-12-11T15:52:31.061Z,5.80
2018-12-11T15:55:03.701Z,5.80
2018-12-11T15:57:36.206Z,5.80
2018-12-11T16:00:09.832Z,5.70
2018-12-11T16:02:42.253Z,5.70
2018-12-11T16:05:14.699Z,5.60
2018-12-11T16:07:47.128Z,5.50
2018-12-11T16:10:19.564Z,5.50
2018-12-11T16:12:51.987Z,5.50
2018-12-11T16:15:24.760Z,5.40
2018-12-11T16:17:57.516Z,5.40
2018-12-11T16:20:29.963Z,5.40
2018-12-11T16:23:02.494Z,5.40
2018-12-11T16:25:34.942Z,5.30
2018-12-11T16:28:07.656Z,5.30
2018-12-11T16:30:40.091Z,5.30
2018-12-11T16:33:12.500Z,5.20
2018-12-11T16:35:44.939Z,5.20
2018-12-11T16:38:17.373Z,5.20
2018-12-11T16:40:49.827Z,5.30
2018-12-11T16:43:22.496Z,5.30
2018-12-11T16:45:54.939Z,5.30
2018-12-11T16:48:27.362Z,5.40
2018-12-11T16:50:59.787Z,5.40
2018-12-11T16:53:32.196Z,5.40
2018-12-11T16:56:04.947Z,5.40
2018-12-11T16:58:37.364Z,5.40
2018-12-11T17:01:09.791Z,5.40
2018-12-11T17:03:42.207Z,5.40
2018-12-11T17:06:14.666Z,5.40
2018-12-11T17:08:47.404Z,5.40
2018-12-11T17:11:19.846Z,5.40
2018-12-11T17:13:52.271Z,5.30
2018-12-11T17:16:24.970Z,5.30
2018-12-11T17:18:57.384Z,5.40
2018-12-11T17:21:30.121Z,5.40
2018-12-11T17:24:02.551Z,5.50
2018-12-11T17:26:35.246Z,5.50
2018-12-11T17:29:07.647Z,5.50
2018-12-11T17:31:40.627Z,5.50
2018-12-11T17:34:13.405Z,5.50
2018-12-11T17:36:46.509Z,5.60
2018-12-11T17:39:19.241Z,5.60
2018-12-11T17:41:51.685Z,5.50
2018-12-11T17:44:24.399Z,5.50
2018-12-11T17:46:56.864Z,5.50
2018-12-11T17:49:29.349Z,5.40
2018-12-11T17:52:02.852Z,5.40
2018-12-11T17:54:35.274Z,5.40
2018-12-11T17:57:08.069Z,5.40
2018-12-11T17:59:40.482Z,5.30
2018-12-11T18:02:12.906Z,5.30
2018-12-11T18:04:45.627Z,5.20
2018-12-11T18:07:18.051Z,5.10
2018-12-11T18:09:50.483Z,5.20
2018-12-11T18:12:23.165Z,5.10
2018-12-11T18:14:55.560Z,5.10
2018-12-11T18:17:27.971Z,5.10
2018-12-11T18:20:00.514Z,5.10
2018-12-11T18:22:33.252Z,5.10
2018-12-11T18:25:05.667Z,5.10
2018-12-11T18:27:38.235Z,5.00
2018-12-11T18:30:10.640Z,4.90
2018-12-11T18:32:43.083Z,4.80
2018-12-11T18:35:15.512Z,4.70
2018-12-11T18:37:48.211Z,4.70
2018-12-11T18:40:20.620Z,4.70
2018-12-11T18:42:53.363Z,4.60
2018-12-11T18:45:25.764Z,4.50
2018-12-11T18:47:58.445Z,4.50
2018-12-11T18:50:31.087Z,4.50
2018-12-11T18:53:03.503Z,4.40
2018-12-11T18:55:36.262Z,4.40
2018-12-11T18:58:08.671Z,4.40
2018-12-11T19:00:41.083Z,4.30
2018-12-11T19:03:13.503Z,4.30
2018-12-11T19:05:46.012Z,4.20
2018-12-11T19:08:18.431Z,4.20
2018-12-11T19:10:51.110Z,4.20
2018-12-11T19:13:23.613Z,4.20
2018-12-11T19:15:56.048Z,4.10
2018-12-11T19:18:28.469Z,4.10
2018-12-11T19:21:00.876Z,4.10
2018-12-11T19:23:42.672Z,4.10
2018-12-11T19:26:15.080Z,4.10
2018-12-11T19:28:47.515Z,4.10
2018-12-11T19:31:19.915Z,4.10
2018-12-11T19:33:52.380Z,4.10
2018-12-11T19:36:24.852Z,4.20
2018-12-11T19:38:57.272Z,4.20
2018-12-11T19:41:29.700Z,4.20
2018-12-11T19:44:02.143Z,4.20
2018-12-11T19:46:34.599Z,4.20
2018-12-11T19:49:07.033Z,4.20
2018-12-11T19:51:39.456Z,4.20
2018-12-11T19:54:12.167Z,4.30
2018-12-11T19:56:44.600Z,4.30
2018-12-11T19:59:17.086Z,4.20
2018-12-11T20:01:49.492Z,4.20
2018-12-11T20:04:22.280Z,4.30
2018-12-11T20:06:55.055Z,4.30
2018-12-11T20:09:27.564Z,4.30
2018-12-11T20:12:03.133Z,4.30
2018-12-11T20:14:36.815Z,4.30
2018-12-11T20:17:09.236Z,4.30
2018-12-11T20:19:41.735Z,4.30
2018-12-11T20:22:14.488Z,4.30
2018-12-11T20:24:47.151Z,4.30
2018-12-11T20:27:19.580Z,4.30
2018-12-11T20:29:52.127Z,4.30
2018-12-11T20:32:24.580Z,4.30
2018-12-11T20:34:57.005Z,4.30
2018-12-11T20:37:29.452Z,4.40
2018-12-11T20:40:01.897Z,4.40
2018-12-11T20:42:34.309Z,4.40
2018-12-11T20:45:06.760Z,4.40
2018-12-11T20:47:39.454Z,4.40
2018-12-11T20:50:12.222Z,4.40
2018-12-11T20:52:44.672Z,4.40
2018-12-11T20:55:17.126Z,4.50
2018-12-11T20:57:49.841Z,4.50
2018-12-11T21:00:22.275Z,4.50
2018-12-11T21:02:54.710Z,4.50
2018-12-11T21:05:27.860Z,4.40
2018-12-11T21:08:00.573Z,4.40
2018-12-11T21:10:33.021Z,4.40
2018-12-11T21:13:05.469Z,4.30
2018-12-11T21:15:38.211Z,4.30
2018-12-11T21:18:10.600Z,4.20
2018-12-11T21:20:43.032Z,4.20
2018-12-11T21:23:15.932Z,4.10
2018-12-11T21:25:48.375Z,4.10
2018-12-11T21:28:20.808Z,4.00
2018-12-11T21:30:53.235Z,4.00
2018-12-11T21:33:25.667Z,4.00
2018-12-11T21:35:58.132Z,3.90
2018-12-11T21:38:30.556Z,3.90
